createdAt,value
2023-05-09T00:00:03.840Z,13.0632
2023-05-09T00:01:06.902Z,13.0299
2023-05-09T00:02:09.882Z,12.9747
2023-05-09T00:03:12.982Z,12.9452
2023-05-09T00:04:16.004Z,12.9237
2023-05-09T00:05:19.007Z,12.8937
2023-05-09T00:06:21.972Z,12.8770
2023-05-09T00:07:24.961Z,12.8726
2023-05-09T00:08:27.967Z,12.8932
2023-05-09T00:09:30.971Z,12.8808
2023-05-09T00:10:33.985Z,12.8619
2023-05-09T00:11:37.052Z,12.8751
2023-05-09T00:12:40.088Z,12.8610
2023-05-09T00:13:43.061Z,12.8794
2023-05-09T00:14:46.059Z,12.8464
2023-05-09T00:15:49.030Z,12.8066
2023-05-09T00:16:52.125Z,12.8202
2023-05-09T00:17:55.119Z,12.8257
2023-05-09T00:18:58.130Z,12.7919
2023-05-09T00:20:01.112Z,12.7660
2023-05-09T00:21:04.108Z,12.7639
2023-05-09T00:22:07.163Z,12.7484
2023-05-09T00:23:10.129Z,12.7523
2023-05-09T00:24:13.122Z,12.6896
2023-05-09T00:25:16.332Z,12.6959
2023-05-09T00:26:19.463Z,12.7085
2023-05-09T00:27:22.472Z,12.7664
2023-05-09T00:28:25.450Z,12.7481
2023-05-09T00:29:28.437Z,12.7039
2023-05-09T00:30:31.407Z,12.7061
2023-05-09T00:31:34.421Z,12.6309
2023-05-09T00:32:37.400Z,12.6251
2023-05-09T00:33:40.424Z,12.7898
2023-05-09T00:34:43.443Z,12.9892
2023-05-09T00:35:46.369Z,12.8687
2023-05-09T00:36:49.383Z,12.8239
2023-05-09T00:37:52.340Z,12.7650
2023-05-09T00:38:55.294Z,12.8167
2023-05-09T00:39:58.274Z,12.6969
2023-05-09T00:41:01.253Z,12.6235
2023-05-09T00:42:04.226Z,12.5957
2023-05-09T00:43:07.219Z,12.3957
2023-05-09T00:44:10.190Z,12.3993
2023-05-09T00:45:13.316Z,12.3778
2023-05-09T00:46:16.532Z,12.3505
2023-05-09T00:47:19.601Z,12.3662
2023-05-09T00:48:22.583Z,12.4959
2023-05-09T00:49:25.575Z,12.4773
2023-05-09T00:50:28.583Z,12.5431
2023-05-09T00:51:31.525Z,12.6227
2023-05-09T00:52:34.558Z,12.5362
2023-05-09T00:53:37.537Z,12.5585
2023-05-09T00:54:40.550Z,12.4740
2023-05-09T00:55:43.617Z,12.4187
2023-05-09T00:56:46.564Z,12.4348
2023-05-09T00:57:49.531Z,12.2944
2023-05-09T00:58:52.521Z,12.3078
2023-05-09T00:59:55.516Z,12.4053
2023-05-09T01:00:58.837Z,12.4576
2023-05-09T01:02:01.837Z,12.4851
2023-05-09T01:03:04.920Z,12.4540
2023-05-09T01:04:07.938Z,12.3929
2023-05-09T01:05:10.965Z,12.4724
2023-05-09T01:06:13.965Z,12.4749
2023-05-09T01:07:16.942Z,12.5024
2023-05-09T01:08:19.894Z,12.5715
2023-05-09T01:09:23.138Z,12.5073
2023-05-09T01:10:26.127Z,12.4941
2023-05-09T01:11:29.134Z,12.5087
2023-05-09T01:12:32.114Z,12.4590
2023-05-09T01:13:35.138Z,12.4512
2023-05-09T01:14:38.142Z,12.4124
2023-05-09T01:15:41.200Z,12.3764
2023-05-09T01:16:44.151Z,12.3769
2023-05-09T01:17:47.161Z,12.3777
2023-05-09T01:18:50.109Z,12.3439
2023-05-09T01:19:53.079Z,12.3829
2023-05-09T01:20:56.064Z,12.4828
2023-05-09T01:21:59.088Z,12.4782
2023-05-09T01:23:02.017Z,12.4400
2023-05-09T01:24:05.005Z,12.4419
2023-05-09T01:25:08.227Z,12.4708
2023-05-09T01:26:11.203Z,12.4628
2023-05-09T01:27:14.229Z,12.4136
2023-05-09T01:28:17.189Z,12.3551
2023-05-09T01:29:20.427Z,12.2691
2023-05-09T01:30:23.449Z,12.2545
2023-05-09T01:31:26.506Z,12.2786
2023-05-09T01:32:29.514Z,12.2690
2023-05-09T01:33:32.459Z,12.3037
2023-05-09T01:34:35.461Z,12.4041
2023-05-09T01:35:38.428Z,12.4188
2023-05-09T01:36:41.388Z,12.3541
2023-05-09T01:37:44.405Z,12.2724
2023-05-09T01:38:47.341Z,12.2327
2023-05-09T01:39:50.348Z,12.3089
2023-05-09T01:40:53.362Z,12.3307
2023-05-09T01:41:56.899Z,12.3205
2023-05-09T01:42:59.889Z,12.2482
2023-05-09T01:44:02.910Z,12.1892
2023-05-09T01:45:06.220Z,12.1307
2023-05-09T01:46:09.218Z,11.7973
2023-05-09T01:47:12.415Z,11.7665
2023-05-09T01:48:15.416Z,11.7282
2023-05-09T01:49:19.167Z,11.8160
2023-05-09T01:50:22.141Z,11.6785
2023-05-09T01:51:25.109Z,11.7871
2023-05-09T01:52:28.098Z,11.9152
2023-05-09T01:53:31.120Z,12.1062
2023-05-09T01:54:34.073Z,12.2162
2023-05-09T01:55:37.061Z,12.1755
2023-05-09T01:56:40.043Z,12.0277
2023-05-09T01:57:43.052Z,11.9576
2023-05-09T01:58:46.005Z,11.9613
2023-05-09T01:59:49.230Z,11.9174
2023-05-09T02:00:52.249Z,11.8895
2023-05-09T02:01:55.886Z,11.9316
2023-05-09T02:02:58.920Z,11.8917
2023-05-09T02:04:01.919Z,11.8020
2023-05-09T02:05:04.924Z,11.9390
2023-05-09T02:06:07.648Z,11.5670
2023-05-09T02:07:10.845Z,11.5841
2023-05-09T02:08:13.826Z,11.5627
2023-05-09T02:09:16.850Z,11.7003
2023-05-09T02:11:20.065Z,11.8155
2023-05-09T02:12:23.048Z,12.0291
2023-05-09T02:13:26.078Z,11.9547
2023-05-09T02:14:29.124Z,11.8571
2023-05-09T02:15:32.113Z,11.8849
2023-05-09T02:16:35.156Z,12.0172
2023-05-09T02:17:38.159Z,12.1290
2023-05-09T02:18:41.100Z,12.1750
2023-05-09T02:19:42.415Z,12.2428
2023-05-09T02:20:45.483Z,12.2361
2023-05-09T02:21:48.424Z,12.1967
2023-05-09T02:22:51.662Z,12.1421
2023-05-09T02:23:54.638Z,12.0180
2023-05-09T02:24:57.983Z,11.9611
2023-05-09T02:26:00.931Z,11.9716
2023-05-09T02:27:04.292Z,11.9763
2023-05-09T02:28:07.297Z,11.9614
2023-05-09T02:29:10.300Z,11.9949
2023-05-09T02:30:13.496Z,12.0225
2023-05-09T02:31:16.508Z,12.0503
2023-05-09T02:32:19.752Z,12.1246
2023-05-09T02:33:22.724Z,12.1552
2023-05-09T02:34:25.693Z,12.1574
2023-05-09T02:35:28.694Z,12.3268
2023-05-09T02:36:31.684Z,12.3943
2023-05-09T02:37:34.938Z,12.3687
2023-05-09T02:38:37.925Z,12.3928
2023-05-09T02:39:41.028Z,12.3351
2023-05-09T02:40:44.061Z,12.2836
2023-05-09T02:41:47.013Z,12.2316
2023-05-09T02:42:49.997Z,12.1691
2023-05-09T02:43:53.023Z,12.1713
2023-05-09T02:44:55.940Z,12.1453
2023-05-09T02:45:58.992Z,12.1029
2023-05-09T02:47:01.919Z,11.9931
2023-05-09T02:48:07.640Z,11.9729
2023-05-09T02:49:07.874Z,12.0774
2023-05-09T02:50:11.201Z,12.0126
2023-05-09T02:51:14.206Z,12.0599
2023-05-09T02:52:17.193Z,11.9686
2023-05-09T02:53:20.156Z,11.7764
2023-05-09T02:54:23.135Z,11.8079
2023-05-09T02:55:26.152Z,12.0585
2023-05-09T02:56:29.168Z,12.0241
2023-05-09T02:57:32.124Z,12.0756
2023-05-09T02:58:35.102Z,12.1039
2023-05-09T02:59:38.061Z,12.2559
2023-05-09T03:00:41.067Z,12.3483
2023-05-09T03:01:44.107Z,12.3417
2023-05-09T03:02:47.164Z,12.3266
2023-05-09T03:03:50.180Z,12.3349
2023-05-09T03:04:53.127Z,12.3210
2023-05-09T03:05:56.105Z,12.3064
2023-05-09T03:06:59.112Z,12.2080
2023-05-09T03:08:02.097Z,12.1188
2023-05-09T03:09:05.111Z,12.1185
2023-05-09T03:10:08.075Z,12.1508
2023-05-09T03:11:11.069Z,12.0597
2023-05-09T03:12:14.094Z,11.9914
2023-05-09T03:13:17.104Z,11.8722
2023-05-09T03:14:20.082Z,11.7673
2023-05-09T03:15:23.082Z,11.7236
2023-05-09T03:16:26.055Z,11.7343
2023-05-09T03:17:26.635Z,11.7890
2023-05-09T03:18:29.613Z,11.9267
2023-05-09T03:19:32.617Z,12.0247
2023-05-09T03:20:35.958Z,12.0941
2023-05-09T03:21:38.934Z,12.1230
2023-05-09T03:22:41.915Z,12.1386
2023-05-09T03:23:44.942Z,12.1281
2023-05-09T03:24:48.002Z,12.1559
2023-05-09T03:25:51.318Z,12.1904
2023-05-09T03:26:54.315Z,12.1603
2023-05-09T03:27:57.375Z,12.1131
2023-05-09T03:29:00.318Z,12.1188
2023-05-09T03:30:03.341Z,12.1345
2023-05-09T03:31:06.462Z,12.1871
2023-05-09T03:32:09.481Z,12.2157
2023-05-09T03:33:13.004Z,12.2245
2023-05-09T03:34:16.006Z,12.2464
2023-05-09T03:35:19.000Z,12.2424
2023-05-09T03:36:21.974Z,12.2231
2023-05-09T03:37:26.901Z,12.2567
2023-05-09T03:38:26.778Z,12.2589
2023-05-09T03:39:29.770Z,12.2294
2023-05-09T03:40:32.986Z,12.2066
2023-05-09T03:41:35.983Z,12.1667
2023-05-09T03:42:39.213Z,12.1164
2023-05-09T03:43:42.274Z,12.0707
2023-05-09T03:44:45.245Z,12.0594
2023-05-09T03:45:48.292Z,12.0568
2023-05-09T03:46:51.357Z,12.0729
2023-05-09T03:47:54.087Z,12.0985
2023-05-09T03:48:57.094Z,12.0970
2023-05-09T03:50:00.114Z,12.0734
2023-05-09T03:51:03.112Z,12.0989
2023-05-09T03:52:06.154Z,12.1444
2023-05-09T03:53:09.175Z,12.0978
2023-05-09T03:54:12.191Z,12.1006
2023-05-09T03:55:15.348Z,12.1633
2023-05-09T03:56:18.759Z,12.1813
2023-05-09T03:57:21.778Z,12.1989
2023-05-09T03:58:24.794Z,12.1722
2023-05-09T03:59:27.845Z,12.2096
2023-05-09T04:00:30.804Z,12.1878
2023-05-09T04:01:33.827Z,12.0095
2023-05-09T04:02:36.915Z,12.1314
2023-05-09T04:03:40.169Z,12.1732
2023-05-09T04:04:43.170Z,12.1893
2023-05-09T04:05:46.181Z,12.2292
2023-05-09T04:06:49.194Z,12.2652
2023-05-09T04:07:52.206Z,12.2839
2023-05-09T04:08:55.205Z,12.2910
2023-05-09T04:09:58.214Z,12.3111
2023-05-09T04:11:01.474Z,12.3053
2023-05-09T04:12:04.499Z,12.3104
2023-05-09T04:13:07.592Z,12.3087
2023-05-09T04:14:10.567Z,12.3065
2023-05-09T04:15:13.954Z,12.3059
2023-05-09T04:16:17.066Z,12.3144
2023-05-09T04:17:20.046Z,12.3246
2023-05-09T04:18:23.062Z,12.3483
2023-05-09T04:19:26.114Z,12.3799
2023-05-09T04:20:29.122Z,12.4006
2023-05-09T04:21:32.152Z,12.4072
2023-05-09T04:22:35.174Z,12.4352
2023-05-09T04:23:36.161Z,12.4404
2023-05-09T04:24:39.160Z,12.4433
2023-05-09T04:25:42.420Z,12.4553
2023-05-09T04:26:45.458Z,12.4578
2023-05-09T04:27:48.466Z,12.4793
2023-05-09T04:28:51.499Z,12.5260
2023-05-09T04:29:54.494Z,12.5549
2023-05-09T04:30:57.740Z,12.5737
2023-05-09T04:32:00.845Z,12.5271
2023-05-09T04:33:03.870Z,12.4906
2023-05-09T04:34:06.886Z,12.5468
2023-05-09T04:35:09.888Z,12.6145
2023-05-09T04:36:12.930Z,12.6323
2023-05-09T04:37:15.951Z,12.6475
2023-05-09T04:38:18.976Z,12.7280
2023-05-09T04:39:21.963Z,12.7071
2023-05-09T04:40:26.857Z,12.6565
2023-05-09T04:41:26.505Z,12.6566
2023-05-09T04:42:29.540Z,12.6970
2023-05-09T04:43:32.607Z,12.6866
2023-05-09T04:44:35.606Z,12.7510
2023-05-09T04:45:36.748Z,12.7492
2023-05-09T04:46:39.855Z,12.7127
2023-05-09T04:47:42.874Z,12.7170
2023-05-09T04:48:45.879Z,12.7113
2023-05-09T04:49:48.884Z,12.7658
2023-05-09T04:50:51.955Z,12.8059
2023-05-09T04:51:54.982Z,12.8125
2023-05-09T04:52:58.035Z,12.8154
2023-05-09T04:54:01.092Z,12.8478
2023-05-09T04:55:04.106Z,12.8897
2023-05-09T04:56:07.150Z,12.8117
2023-05-09T04:57:17.244Z,12.7705
2023-05-09T04:58:11.701Z,12.8254
2023-05-09T04:59:14.734Z,12.8282
2023-05-09T05:00:17.760Z,12.9089
2023-05-09T05:01:20.781Z,12.9675
2023-05-09T05:02:23.825Z,12.9859
2023-05-09T05:03:26.871Z,12.9560
2023-05-09T05:04:29.893Z,12.9766
2023-05-09T05:06:35.988Z,12.9372
2023-05-09T05:07:39.028Z,12.9972
2023-05-09T05:08:42.066Z,12.9895
2023-05-09T05:09:45.079Z,13.0558
2023-05-09T05:10:48.119Z,13.0734
2023-05-09T05:12:00.829Z,13.1173
2023-05-09T05:12:52.726Z,13.1585
2023-05-09T05:13:55.749Z,13.1125
2023-05-09T05:14:58.796Z,13.1026
2023-05-09T05:16:01.849Z,12.9642
2023-05-09T05:17:04.859Z,13.0943
2023-05-09T05:18:08.029Z,13.1995
2023-05-09T05:19:11.021Z,13.2041
2023-05-09T05:20:14.027Z,13.0905
2023-05-09T05:21:17.158Z,13.1565
2023-05-09T05:22:20.118Z,13.2116
2023-05-09T05:23:23.134Z,13.2048
2023-05-09T05:24:26.141Z,13.2791
2023-05-09T05:25:29.163Z,13.3825
2023-05-09T05:26:32.405Z,13.4628
2023-05-09T05:27:35.450Z,13.5259
2023-05-09T05:28:38.477Z,13.5418
2023-05-09T05:29:41.491Z,13.4351
2023-05-09T05:30:44.512Z,13.5823
2023-05-09T05:31:47.599Z,13.6258
2023-05-09T05:33:51.137Z,13.5773
2023-05-09T05:34:54.080Z,13.5955
2023-05-09T05:35:57.122Z,13.5679
2023-05-09T05:37:00.139Z,13.5837
2023-05-09T05:38:03.186Z,13.6242
2023-05-09T05:39:06.207Z,13.6660
2023-05-09T05:40:09.208Z,13.6778
2023-05-09T05:41:12.257Z,13.5554
2023-05-09T05:42:15.278Z,13.4887
2023-05-09T05:43:18.301Z,13.3889
2023-05-09T05:44:21.300Z,13.4877
2023-05-09T05:45:24.322Z,13.5861
2023-05-09T05:46:27.804Z,13.6902
2023-05-09T05:47:30.848Z,13.5755
2023-05-09T05:48:34.459Z,13.5869
2023-05-09T05:49:37.503Z,13.5639
2023-05-09T05:50:48.128Z,13.6949
2023-05-09T05:51:43.792Z,13.5956
2023-05-09T05:52:46.822Z,13.7948
2023-05-09T05:53:50.099Z,13.8211
2023-05-09T05:54:53.162Z,13.3963
2023-05-09T05:55:56.402Z,13.2487
2023-05-09T05:56:59.451Z,13.2531
2023-05-09T05:58:02.433Z,13.2740
2023-05-09T05:59:05.444Z,13.3944
2023-05-09T06:00:08.628Z,13.6189
2023-05-09T06:01:12.469Z,13.8080
2023-05-09T06:02:15.615Z,13.7744
2023-05-09T06:03:18.754Z,13.8264
2023-05-09T06:04:21.980Z,13.9814
2023-05-09T06:05:25.164Z,14.2009
2023-05-09T06:06:28.430Z,14.2079
2023-05-09T06:07:31.417Z,14.0950
2023-05-09T06:08:34.539Z,14.1696
2023-05-09T06:09:37.574Z,14.2620
2023-05-09T06:10:40.639Z,14.3594
2023-05-09T06:11:43.713Z,14.2040
2023-05-09T06:12:46.770Z,14.0912
2023-05-09T06:13:49.981Z,13.9064
2023-05-09T06:14:53.048Z,13.9909
2023-05-09T06:15:57.741Z,14.3195
2023-05-09T06:16:57.661Z,14.4529
2023-05-09T06:18:00.710Z,14.2683
2023-05-09T06:19:03.756Z,14.1285
2023-05-09T06:20:06.758Z,14.3411
2023-05-09T06:21:09.890Z,13.7106
2023-05-09T06:22:12.879Z,13.6044
2023-05-09T06:23:15.904Z,13.6092
2023-05-09T06:24:31.867Z,13.5870
2023-05-09T06:25:20.501Z,13.7471
2023-05-09T06:26:23.518Z,13.7395
2023-05-09T06:27:26.559Z,13.7216
2023-05-09T06:28:29.551Z,14.0942
2023-05-09T06:29:31.901Z,13.8681
2023-05-09T06:30:34.913Z,14.0108
2023-05-09T06:31:37.944Z,14.2144
2023-05-09T06:32:41.045Z,14.3449
2023-05-09T06:33:44.041Z,14.3917
2023-05-09T06:34:47.055Z,14.6939
2023-05-09T06:35:50.070Z,14.8999
2023-05-09T06:36:53.153Z,14.8528
2023-05-09T06:37:56.152Z,15.2076
2023-05-09T06:38:59.213Z,15.9946
2023-05-09T06:40:02.246Z,15.2896
2023-05-09T06:41:05.455Z,15.5464
2023-05-09T06:42:08.457Z,15.1385
2023-05-09T06:43:11.526Z,15.5874
2023-05-09T06:44:14.573Z,15.0032
2023-05-09T06:45:17.853Z,14.7420
2023-05-09T06:46:21.183Z,15.4537
2023-05-09T06:47:24.379Z,15.9977
2023-05-09T06:48:27.368Z,16.4867
2023-05-09T06:49:30.392Z,15.3340
2023-05-09T06:50:33.388Z,15.8284
2023-05-09T06:51:36.267Z,15.5933
2023-05-09T06:52:39.327Z,15.4278
2023-05-09T06:53:42.325Z,15.4971
2023-05-09T06:54:45.360Z,16.1251
2023-05-09T06:55:48.390Z,15.7440
2023-05-09T06:56:51.416Z,15.7552
2023-05-09T06:57:54.443Z,16.2796
2023-05-09T06:58:57.457Z,15.5772
2023-05-09T07:00:00.480Z,16.2839
2023-05-09T07:01:03.493Z,16.5641
2023-05-09T07:02:06.595Z,16.4832
2023-05-09T07:03:09.625Z,16.7192
2023-05-09T07:04:12.628Z,16.3412
2023-05-09T07:05:15.849Z,16.5300
2023-05-09T07:06:19.097Z,17.0165
2023-05-09T07:07:22.141Z,17.7427
2023-05-09T07:08:25.181Z,17.6525
2023-05-09T07:09:28.148Z,17.9712
2023-05-09T07:10:31.180Z,18.5207
2023-05-09T07:11:34.187Z,19.3907
2023-05-09T07:13:39.554Z,19.1726
2023-05-09T07:14:42.572Z,17.7595
2023-05-09T07:15:45.722Z,18.0686
2023-05-09T07:16:48.775Z,17.9604
2023-05-09T07:17:51.786Z,18.2932
2023-05-09T07:18:54.769Z,16.9519
2023-05-09T07:19:57.810Z,18.0955
2023-05-09T07:21:00.827Z,16.3946
2023-05-09T07:22:04.141Z,15.8596
2023-05-09T07:23:07.153Z,16.9392
2023-05-09T07:24:10.256Z,17.5025
2023-05-09T07:25:13.510Z,17.5958
2023-05-09T07:26:16.617Z,18.1943
2023-05-09T07:27:19.657Z,17.8101
2023-05-09T07:28:22.691Z,18.3587
2023-05-09T07:29:25.766Z,17.9285
2023-05-09T07:30:28.750Z,18.7532
2023-05-09T07:31:31.771Z,18.5931
2023-05-09T07:32:34.772Z,18.1002
2023-05-09T07:33:37.789Z,18.4561
2023-05-09T07:34:40.786Z,20.1384
2023-05-09T07:35:43.985Z,20.8006
2023-05-09T07:36:47.000Z,21.0009
2023-05-09T07:37:50.200Z,20.3538
2023-05-09T07:38:53.278Z,19.7123
2023-05-09T07:39:56.058Z,17.8011
2023-05-09T07:40:59.242Z,18.2612
2023-05-09T07:42:02.258Z,18.0034
2023-05-09T07:43:05.313Z,18.1195
2023-05-09T07:44:08.315Z,17.8261
2023-05-09T07:45:11.392Z,17.1736
2023-05-09T07:46:14.715Z,17.6841
2023-05-09T07:47:17.733Z,17.4072
2023-05-09T07:48:20.774Z,17.2934
2023-05-09T07:49:23.797Z,17.3393
2023-05-09T07:50:26.471Z,17.5347
2023-05-09T07:51:29.491Z,17.6723
2023-05-09T07:52:32.564Z,18.2463
2023-05-09T07:53:35.543Z,17.9309
2023-05-09T07:54:38.560Z,18.3239
2023-05-09T07:55:41.648Z,17.9981
2023-05-09T07:56:44.629Z,18.4701
2023-05-09T07:57:47.661Z,17.9703
2023-05-09T07:58:50.717Z,17.3756
2023-05-09T07:59:53.743Z,18.2222
2023-05-09T08:00:56.785Z,18.5606
2023-05-09T08:01:59.842Z,18.4431
2023-05-09T08:03:03.016Z,18.5742
2023-05-09T08:04:06.531Z,18.8326
2023-05-09T08:05:09.570Z,18.7728
2023-05-09T08:06:12.568Z,19.3345
2023-05-09T08:07:15.591Z,19.4566
2023-05-09T08:08:18.597Z,19.7462
2023-05-09T08:09:21.846Z,19.5020
2023-05-09T08:10:24.885Z,18.7434
2023-05-09T08:11:27.927Z,19.3177
2023-05-09T08:12:30.888Z,18.9603
2023-05-09T08:13:33.934Z,18.7041
2023-05-09T08:14:37.003Z,18.7324
2023-05-09T08:15:39.747Z,18.5844
2023-05-09T08:16:42.738Z,17.5853
2023-05-09T08:17:45.853Z,16.8296
2023-05-09T08:18:48.866Z,17.7538
2023-05-09T08:19:51.883Z,17.8888
2023-05-09T08:20:54.894Z,18.0917
2023-05-09T08:21:57.949Z,17.8058
2023-05-09T08:23:00.985Z,18.5694
2023-05-09T08:24:03.985Z,18.6041
2023-05-09T08:25:07.023Z,18.1184
2023-05-09T08:26:10.036Z,18.1646
2023-05-09T08:27:10.307Z,18.3419
2023-05-09T08:28:13.291Z,18.1625
2023-05-09T08:29:16.311Z,17.3669
2023-05-09T08:30:19.331Z,17.5504
2023-05-09T08:31:22.379Z,16.9336
2023-05-09T08:32:25.424Z,17.4032
2023-05-09T08:33:28.456Z,17.7243
2023-05-09T08:34:29.619Z,17.1911
2023-05-09T08:35:32.602Z,17.2493
2023-05-09T08:37:35.764Z,17.1392
2023-05-09T08:38:38.999Z,17.0736
2023-05-09T08:39:42.025Z,17.6547
2023-05-09T08:40:45.127Z,17.6382
2023-05-09T08:41:48.236Z,18.1625
2023-05-09T08:42:51.451Z,18.4182
2023-05-09T08:43:54.441Z,18.5840
2023-05-09T08:44:57.477Z,18.3903
2023-05-09T08:46:00.676Z,18.2018
2023-05-09T08:47:03.806Z,18.7346
2023-05-09T08:48:07.111Z,18.7178
2023-05-09T08:49:10.512Z,18.6459
2023-05-09T08:50:13.733Z,18.3094
2023-05-09T08:51:17.098Z,18.0025
2023-05-09T08:52:20.121Z,17.6406
2023-05-09T08:53:23.222Z,17.8391
2023-05-09T08:54:26.224Z,18.1475
2023-05-09T08:55:29.259Z,18.0628
2023-05-09T08:56:32.307Z,17.9398
2023-05-09T08:57:35.318Z,17.3478
2023-05-09T08:58:38.370Z,17.2659
2023-05-09T08:59:41.377Z,17.0958
2023-05-09T09:00:44.425Z,17.3500
2023-05-09T09:01:47.523Z,17.4417
2023-05-09T09:02:50.553Z,16.9354
2023-05-09T09:03:53.589Z,16.9961
2023-05-09T09:04:56.705Z,17.0628
2023-05-09T09:05:59.788Z,17.0531
2023-05-09T09:07:02.824Z,17.1964
2023-05-09T09:08:05.853Z,17.1803
2023-05-09T09:09:08.892Z,17.5141
2023-05-09T09:10:11.959Z,18.7093
2023-05-09T09:11:14.951Z,20.3232
2023-05-09T09:12:17.952Z,19.1077
2023-05-09T09:13:21.003Z,18.5812
2023-05-09T09:14:24.077Z,17.7413
2023-05-09T09:15:27.072Z,18.0562
2023-05-09T09:16:30.153Z,18.5278
2023-05-09T09:17:33.232Z,18.3124
2023-05-09T09:18:36.288Z,17.6484
2023-05-09T09:19:39.326Z,17.8011
2023-05-09T09:20:42.394Z,17.5777
2023-05-09T09:21:45.403Z,17.8836
2023-05-09T09:22:48.523Z,18.4329
2023-05-09T09:23:51.533Z,18.4743
2023-05-09T09:24:54.620Z,19.0284
2023-05-09T09:25:59.607Z,19.4404
2023-05-09T09:27:59.449Z,19.5146
2023-05-09T09:29:02.448Z,19.1660
2023-05-09T09:30:05.526Z,19.0087
2023-05-09T09:31:08.514Z,18.2664
2023-05-09T09:32:11.570Z,19.0800
2023-05-09T09:33:14.724Z,18.9234
2023-05-09T09:34:17.698Z,19.6710
2023-05-09T09:35:20.713Z,20.3836
2023-05-09T09:36:23.740Z,20.4454
2023-05-09T09:37:24.005Z,18.3978
2023-05-09T09:38:30.879Z,18.6536
2023-05-09T09:39:34.015Z,19.6427
2023-05-09T09:40:37.016Z,18.5325
2023-05-09T09:41:40.206Z,17.8518
2023-05-09T09:42:43.238Z,18.9233
2023-05-09T09:43:46.257Z,21.3091
2023-05-09T09:44:49.265Z,22.3686
2023-05-09T09:45:52.431Z,22.0282
2023-05-09T09:46:55.490Z,23.0081
2023-05-09T09:47:58.601Z,23.0855
2023-05-09T09:49:01.865Z,23.5440
2023-05-09T09:50:04.935Z,24.6921
2023-05-09T09:51:08.135Z,24.1713
2023-05-09T09:52:11.182Z,23.0987
2023-05-09T09:53:14.194Z,23.9856
2023-05-09T09:54:18.326Z,24.3709
2023-05-09T09:55:17.669Z,24.0228
2023-05-09T09:56:20.621Z,23.3954
2023-05-09T09:57:23.662Z,22.4500
2023-05-09T09:58:26.694Z,21.9444
2023-05-09T09:59:29.981Z,21.9555
2023-05-09T10:00:32.989Z,21.6403
2023-05-09T10:01:36.116Z,21.4519
2023-05-09T10:02:39.393Z,21.7967
2023-05-09T10:03:42.443Z,21.7546
2023-05-09T10:04:43.573Z,22.2674
2023-05-09T10:05:46.585Z,22.5343
2023-05-09T10:06:49.610Z,22.1859
2023-05-09T10:07:52.674Z,22.2794
2023-05-09T10:08:55.678Z,22.2909
2023-05-09T10:09:57.141Z,21.6206
2023-05-09T10:11:00.159Z,22.2664
2023-05-09T10:12:03.627Z,21.3457
2023-05-09T10:13:06.693Z,22.2976
2023-05-09T10:14:09.748Z,22.8673
2023-05-09T10:15:12.749Z,22.6375
2023-05-09T10:16:35.646Z,22.3330
2023-05-09T10:18:25.759Z,23.3289
2023-05-09T10:19:28.838Z,22.3600
2023-05-09T10:20:31.906Z,22.1762
2023-05-09T10:21:36.160Z,21.9525
2023-05-09T10:22:36.343Z,22.8646
2023-05-09T10:23:39.065Z,22.6941
2023-05-09T10:24:42.116Z,22.3931
2023-05-09T10:25:45.166Z,23.4041
2023-05-09T10:26:48.519Z,23.7948
2023-05-09T10:27:51.603Z,22.7536
2023-05-09T10:28:54.632Z,22.8619
2023-05-09T10:29:57.933Z,21.8641
2023-05-09T10:31:01.019Z,21.6183
2023-05-09T10:32:04.056Z,21.8886
2023-05-09T10:33:07.159Z,23.0037
2023-05-09T10:34:10.421Z,21.3587
2023-05-09T10:35:13.657Z,21.1320
2023-05-09T10:36:16.869Z,19.7869
2023-05-09T10:37:20.350Z,20.0412
2023-05-09T10:38:23.414Z,20.0714
2023-05-09T10:39:26.728Z,20.1661
2023-05-09T10:40:29.782Z,20.8955
2023-05-09T10:41:32.832Z,21.7976
2023-05-09T10:42:36.129Z,20.7462
2023-05-09T10:43:38.913Z,20.9443
2023-05-09T10:44:41.959Z,21.8591
2023-05-09T10:45:45.031Z,21.0523
2023-05-09T10:46:48.161Z,21.3220
2023-05-09T10:47:51.336Z,20.7220
2023-05-09T10:48:54.439Z,20.7419
2023-05-09T10:50:02.618Z,20.4801
2023-05-09T10:51:05.613Z,21.0631
2023-05-09T10:52:08.695Z,21.7120
2023-05-09T10:53:11.765Z,21.4807
2023-05-09T10:54:14.820Z,22.7704
2023-05-09T10:55:17.908Z,22.7243
2023-05-09T10:56:20.987Z,23.1369
2023-05-09T10:57:24.330Z,23.1231
2023-05-09T10:58:27.404Z,22.4044
2023-05-09T10:59:30.464Z,22.0298
2023-05-09T11:00:33.538Z,22.8476
2023-05-09T11:02:38.292Z,21.6959
2023-05-09T11:03:41.626Z,21.4450
2023-05-09T11:04:44.774Z,20.8137
2023-05-09T11:05:47.838Z,20.8629
2023-05-09T11:06:50.918Z,21.2240
2023-05-09T11:07:54.108Z,20.9205
2023-05-09T11:08:57.192Z,20.7581
2023-05-09T11:10:00.282Z,20.9882
2023-05-09T11:11:03.368Z,20.9315
2023-05-09T11:13:09.179Z,21.6170
2023-05-09T11:14:12.221Z,20.0861
2023-05-09T11:15:15.446Z,21.2070
2023-05-09T11:16:18.667Z,22.0055
2023-05-09T11:17:22.072Z,21.5176
2023-05-09T11:18:25.242Z,22.5003
2023-05-09T11:19:28.290Z,23.1366
2023-05-09T11:20:31.394Z,22.8185
2023-05-09T11:21:34.654Z,21.4627
2023-05-09T11:22:37.726Z,21.6324
2023-05-09T11:23:40.805Z,21.4975
2023-05-09T11:24:43.864Z,21.2284
2023-05-09T11:25:46.959Z,21.1583
2023-05-09T11:26:49.984Z,21.5766
2023-05-09T11:27:53.100Z,20.5011
2023-05-09T11:28:56.317Z,20.6547
2023-05-09T11:29:59.370Z,20.6832
2023-05-09T11:31:02.448Z,20.6562
2023-05-09T11:32:05.507Z,20.8407
2023-05-09T11:33:09.144Z,20.9231
2023-05-09T11:34:12.405Z,21.1218
2023-05-09T11:35:15.984Z,20.8118
2023-05-09T11:36:15.625Z,21.2769
2023-05-09T11:37:18.701Z,20.7463
2023-05-09T11:38:29.278Z,21.6161
2023-05-09T11:39:32.368Z,21.7274
2023-05-09T11:40:35.461Z,21.2746
2023-05-09T11:41:38.578Z,21.0405
2023-05-09T11:42:41.594Z,21.1236
2023-05-09T11:43:44.676Z,21.0481
2023-05-09T11:44:47.950Z,21.6165
2023-05-09T11:45:51.062Z,21.8671
2023-05-09T11:46:54.167Z,19.9776
2023-05-09T11:47:57.298Z,21.6302
2023-05-09T11:49:07.784Z,22.1707
2023-05-09T11:50:04.069Z,21.4358
2023-05-09T11:51:07.092Z,21.0410
2023-05-09T11:52:10.237Z,20.9709
2023-05-09T11:53:13.420Z,20.7284
2023-05-09T11:54:16.451Z,21.9041
2023-05-09T11:55:19.748Z,21.7054
2023-05-09T11:56:22.846Z,22.3143
2023-05-09T11:57:25.890Z,23.5866
2023-05-09T11:58:28.999Z,23.8414
2023-05-09T11:59:32.083Z,22.8505
2023-05-09T12:00:35.146Z,23.4069
2023-05-09T12:01:38.216Z,24.3521
2023-05-09T12:02:41.396Z,24.2657
2023-05-09T12:03:44.534Z,23.7982
2023-05-09T12:04:47.648Z,22.5791
2023-05-09T12:05:50.938Z,21.7157
2023-05-09T12:06:54.021Z,22.8369
2023-05-09T12:07:57.090Z,22.5716
2023-05-09T12:09:00.181Z,22.4315
2023-05-09T12:10:03.213Z,22.1883
2023-05-09T12:11:06.278Z,21.7499
2023-05-09T12:12:07.502Z,22.3233
2023-05-09T12:13:10.628Z,22.3322
2023-05-09T12:14:13.752Z,22.7316
2023-05-09T12:15:17.112Z,21.9618
2023-05-09T12:16:17.032Z,23.0629
2023-05-09T12:17:19.854Z,23.8336
2023-05-09T12:18:23.273Z,23.9301
2023-05-09T12:19:26.344Z,22.5805
2023-05-09T12:20:29.388Z,22.1017
2023-05-09T12:21:32.446Z,21.9381
2023-05-09T12:22:35.638Z,22.0309
2023-05-09T12:23:38.699Z,23.4003
2023-05-09T12:24:41.805Z,21.9268
2023-05-09T12:25:44.953Z,21.5140
2023-05-09T12:26:48.000Z,21.8917
2023-05-09T12:27:51.089Z,21.1093
2023-05-09T12:28:54.140Z,21.0905
2023-05-09T12:29:57.202Z,22.1473
2023-05-09T12:31:00.279Z,22.1784
2023-05-09T12:33:03.997Z,22.0463
2023-05-09T12:34:07.049Z,22.8271
2023-05-09T12:35:10.127Z,22.8567
2023-05-09T12:36:13.207Z,22.2221
2023-05-09T12:37:14.392Z,21.9081
2023-05-09T12:38:17.665Z,22.7117
2023-05-09T12:39:20.704Z,21.5908
2023-05-09T12:40:23.811Z,21.4690
2023-05-09T12:41:36.907Z,21.5114
2023-05-09T12:42:28.424Z,21.5051
2023-05-09T12:43:31.488Z,21.2645
2023-05-09T12:44:34.576Z,20.8913
2023-05-09T12:45:37.665Z,21.6550
2023-05-09T12:46:40.762Z,21.5598
2023-05-09T12:47:43.826Z,22.7052
2023-05-09T12:48:46.867Z,23.4793
2023-05-09T12:49:49.947Z,22.8716
2023-05-09T12:50:52.719Z,21.6242
2023-05-09T12:51:55.760Z,23.3124